createdAt,value
2023-05-17T00:02:59.201Z,12.36
2023-05-17T00:07:01.447Z,12.51
2023-05-17T00:11:03.761Z,12.52
2023-05-17T00:15:07.394Z,12.55
2023-05-17T00:19:09.850Z,12.56
2023-05-17T00:23:12.131Z,12.51
2023-05-17T00:27:14.428Z,12.56
2023-05-17T00:31:17.819Z,12.58
2023-05-17T00:35:20.092Z,12.40
2023-05-17T00:39:22.462Z,12.44
2023-05-17T00:43:26.224Z,12.42
2023-05-17T00:47:28.556Z,12.43
2023-05-17T00:51:31.743Z,12.46
2023-05-17T00:55:34.531Z,12.48
2023-05-17T00:59:37.674Z,12.50
2023-05-17T01:03:43.983Z,12.57
2023-05-17T01:07:53.145Z,12.53
2023-05-17T01:12:12.129Z,12.61
2023-05-17T01:16:19.396Z,12.61
2023-05-17T01:20:27.014Z,12.58
2023-05-17T01:24:39.007Z,12.48
2023-05-17T01:28:44.141Z,12.41
2023-05-17T01:32:46.643Z,12.49
2023-05-17T01:36:49.567Z,12.48
2023-05-17T01:41:36.597Z,12.56
2023-05-17T01:45:47.307Z,12.62
2023-05-17T01:49:54.584Z,12.50
2023-05-17T01:54:01.833Z,12.45
2023-05-17T01:58:08.219Z,12.41
2023-05-17T02:02:10.765Z,12.51
2023-05-17T02:06:13.120Z,12.48
2023-05-17T02:10:20.753Z,12.42
2023-05-17T02:14:24.756Z,12.46
2023-05-17T02:18:28.123Z,12.47
2023-05-17T02:22:30.483Z,12.57
2023-05-17T02:26:33.468Z,12.59
2023-05-17T02:30:35.648Z,12.36
2023-05-17T02:34:37.780Z,12.28
2023-05-17T02:38:41.020Z,12.26
2023-05-17T02:42:43.342Z,12.30
2023-05-17T02:46:46.054Z,12.30
2023-05-17T02:50:48.370Z,12.29
2023-05-17T02:54:51.805Z,12.29
2023-05-17T02:58:57.721Z,12.24
2023-05-17T03:03:00.073Z,12.27
2023-05-17T03:07:02.593Z,12.27
2023-05-17T03:11:06.030Z,12.30
2023-05-17T03:15:09.399Z,12.29
2023-05-17T03:19:12.349Z,12.29
2023-05-17T03:23:16.897Z,12.25
2023-05-17T03:27:27.374Z,12.27
2023-05-17T03:31:29.807Z,12.24
2023-05-17T03:35:32.234Z,12.29
2023-05-17T03:39:34.442Z,12.27
2023-05-17T03:43:36.632Z,12.28
2023-05-17T03:47:39.147Z,12.31
2023-05-17T03:51:41.772Z,12.28
2023-05-17T03:55:43.961Z,12.33
2023-05-17T03:59:46.831Z,12.44
2023-05-17T04:03:50.359Z,12.50
2023-05-17T04:07:54.040Z,12.40
2023-05-17T04:11:56.670Z,12.53
2023-05-17T04:15:58.798Z,12.63
2023-05-17T04:20:01.300Z,12.65
2023-05-17T04:24:03.777Z,12.72
2023-05-17T04:28:06.082Z,12.75
2023-05-17T04:32:09.346Z,12.70
2023-05-17T04:36:12.269Z,12.72
2023-05-17T04:40:15.772Z,12.74
2023-05-17T04:44:18.855Z,12.80
2023-05-17T04:48:21.415Z,12.70
2023-05-17T04:52:23.759Z,12.54
2023-05-17T04:56:27.661Z,12.67
2023-05-17T05:00:31.221Z,12.74
2023-05-17T05:04:38.513Z,12.91
2023-05-17T05:08:41.240Z,13.05
2023-05-17T05:12:46.412Z,13.02
2023-05-17T05:16:50.545Z,13.27
2023-05-17T05:20:52.776Z,13.44
2023-05-17T05:24:56.003Z,13.47
2023-05-17T05:28:58.724Z,13.56
2023-05-17T05:33:02.194Z,13.55
2023-05-17T05:37:05.101Z,13.52
2023-05-17T05:41:08.269Z,13.52
2023-05-17T05:45:12.538Z,13.54
2023-05-17T05:49:16.088Z,13.45
2023-05-17T05:53:19.916Z,13.43
2023-05-17T05:57:30.351Z,13.52
2023-05-17T06:01:32.623Z,13.48
2023-05-17T06:05:34.775Z,13.21
2023-05-17T06:09:36.917Z,13.11
2023-05-17T06:13:39.043Z,13.29
2023-05-17T06:17:41.236Z,13.91
2023-05-17T06:21:44.055Z,14.41
2023-05-17T06:25:46.635Z,14.31
2023-05-17T06:29:48.829Z,14.69
2023-05-17T06:33:51.069Z,14.86
2023-05-17T06:37:53.252Z,15.13
2023-05-17T06:41:55.488Z,15.11
2023-05-17T06:45:57.783Z,15.29
2023-05-17T06:50:00.071Z,15.51
2023-05-17T06:54:02.429Z,15.76
2023-05-17T06:58:04.682Z,16.02
2023-05-17T07:02:06.918Z,15.87
2023-05-17T07:06:09.056Z,15.52
2023-05-17T07:10:11.693Z,15.45
2023-05-17T07:14:14.146Z,15.40
2023-05-17T07:18:16.672Z,15.62
2023-05-17T07:22:19.012Z,15.35
2023-05-17T07:26:21.735Z,15.98
2023-05-17T07:30:23.842Z,16.37
2023-05-17T07:34:26.189Z,16.42
2023-05-17T07:38:28.372Z,16.75
2023-05-17T07:42:30.464Z,16.73
2023-05-17T07:46:32.542Z,16.81
2023-05-17T07:50:34.685Z,16.71
2023-05-17T07:54:39.460Z,16.50
2023-05-17T07:58:41.552Z,16.29
2023-05-17T08:02:43.738Z,16.24
2023-05-17T08:06:47.266Z,16.14
2023-05-17T08:10:49.847Z,16.26
2023-05-17T08:14:51.930Z,16.21
2023-05-17T08:18:54.254Z,16.19
2023-05-17T08:22:56.469Z,16.41
2023-05-17T08:26:58.639Z,16.61
2023-05-17T08:31:00.738Z,17.01
2023-05-17T08:35:04.217Z,17.38
2023-05-17T08:39:08.364Z,17.62
2023-05-17T08:43:12.559Z,17.54
2023-05-17T08:47:26.169Z,17.69
2023-05-17T08:51:29.039Z,17.93
2023-05-17T08:55:33.263Z,18.42
2023-05-17T08:59:35.557Z,18.07
2023-05-17T09:03:41.269Z,18.65
2023-05-17T09:07:43.762Z,18.87
2023-05-17T09:11:46.137Z,18.93
2023-05-17T09:15:49.607Z,19.24
2023-05-17T09:19:52.169Z,19.03
2023-05-17T09:24:05.563Z,18.97
2023-05-17T09:28:09.678Z,18.86
2023-05-17T09:32:20.793Z,18.30
2023-05-17T09:36:24.038Z,18.36
2023-05-17T09:40:26.471Z,18.38
2023-05-17T09:44:28.866Z,18.16
2023-05-17T09:48:31.039Z,17.98
2023-05-17T09:52:35.756Z,17.62
2023-05-17T09:56:38.418Z,17.56
2023-05-17T10:00:43.886Z,17.36
2023-05-17T10:04:49.492Z,17.29
2023-05-17T10:08:55.228Z,16.99
2023-05-17T10:12:59.245Z,16.89
2023-05-17T10:17:03.298Z,16.84
2023-05-17T10:21:07.898Z,16.83
2023-05-17T10:25:10.480Z,16.73
2023-05-17T10:29:13.423Z,16.78
2023-05-17T10:33:17.905Z,17.02
2023-05-17T10:37:21.838Z,17.26
2023-05-17T10:41:29.050Z,17.55
2023-05-17T10:45:31.990Z,17.67
2023-05-17T10:49:37.080Z,17.39
2023-05-17T10:54:18.578Z,17.17
2023-05-17T10:58:21.522Z,17.19
2023-05-17T11:02:24.636Z,17.22
2023-05-17T11:06:27.033Z,17.09
2023-05-17T11:10:29.352Z,17.26
2023-05-17T11:14:52.205Z,17.28
2023-05-17T11:18:56.112Z,17.05
2023-05-17T11:23:05.053Z,16.68
2023-05-17T11:27:07.557Z,16.61
2023-05-17T11:31:10.418Z,16.89
2023-05-17T11:35:13.032Z,17.10
2023-05-17T11:39:17.290Z,17.41
2023-05-17T11:43:20.343Z,17.80
2023-05-17T11:47:22.832Z,18.13
2023-05-17T11:51:25.945Z,18.16
2023-05-17T11:55:28.259Z,18.08
2023-05-17T11:59:38.162Z,17.86
2023-05-17T12:03:40.251Z,18.00
2023-05-17T12:07:42.481Z,18.23
2023-05-17T12:11:45.144Z,18.62
2023-05-17T12:16:17.593Z,18.79
2023-05-17T12:20:20.353Z,18.48
2023-05-17T12:24:22.542Z,18.21
2023-05-17T12:28:24.690Z,18.31
2023-05-17T12:32:27.232Z,18.44
2023-05-17T12:36:31.756Z,18.90
2023-05-17T12:40:33.978Z,18.96
2023-05-17T12:44:36.061Z,19.28
2023-05-17T12:48:39.659Z,19.39
2023-05-17T12:52:41.729Z,19.41
2023-05-17T12:56:45.030Z,19.22
2023-05-17T13:00:57.953Z,19.34
2023-05-17T13:05:13.318Z,19.35
2023-05-17T13:09:18.829Z,19.38
2023-05-17T13:13:21.288Z,19.00
2023-05-17T13:17:34.744Z,18.79
2023-05-17T13:21:36.805Z,18.71
2023-05-17T13:25:38.907Z,18.46
2023-05-17T13:29:42.805Z,18.24
2023-05-17T13:33:45.408Z,18.53
2023-05-17T13:37:47.637Z,18.66
2023-05-17T13:41:50.099Z,18.87
2023-05-17T13:45:56.829Z,19.16
2023-05-17T13:50:00.573Z,19.42
2023-05-17T13:54:04.979Z,19.86
2023-05-17T13:58:07.633Z,20.33
2023-05-17T14:02:10.407Z,20.33
2023-05-17T14:06:12.684Z,19.97
2023-05-17T14:10:15.279Z,19.97
2023-05-17T14:14:17.332Z,19.86
2023-05-17T14:18:19.542Z,19.69
2023-05-17T14:22:21.723Z,19.77
2023-05-17T14:26:23.779Z,19.91
2023-05-17T14:30:26.019Z,19.63
2023-05-17T14:34:28.212Z,19.58
2023-05-17T14:38:30.636Z,20.18
2023-05-17T14:42:32.916Z,20.26
2023-05-17T14:46:35.051Z,19.91
2023-05-17T14:50:37.231Z,19.74
2023-05-17T14:54:41.836Z,19.69
2023-05-17T14:58:43.981Z,19.76
2023-05-17T15:02:46.146Z,20.02
2023-05-17T15:06:48.541Z,20.17
2023-05-17T15:10:51.598Z,20.65
2023-05-17T15:14:53.939Z,21.03
2023-05-17T15:18:57.742Z,19.97
2023-05-17T15:23:00.021Z,19.47
2023-05-17T15:27:02.085Z,19.37
2023-05-17T15:31:11.028Z,19.32
2023-05-17T15:35:13.342Z,19.35
2023-05-17T15:39:15.622Z,18.88
2023-05-17T15:43:17.668Z,18.93
2023-05-17T15:47:20.519Z,19.34
2023-05-17T15:51:23.979Z,18.93
2023-05-17T15:55:26.048Z,18.27
2023-05-17T15:59:28.190Z,18.21
2023-05-17T16:03:30.618Z,18.51
2023-05-17T16:07:32.725Z,18.13
2023-05-17T16:11:34.817Z,17.96
2023-05-17T16:15:36.988Z,17.69
2023-05-17T16:19:39.122Z,17.53
2023-05-17T16:23:41.612Z,17.52
2023-05-17T16:27:43.677Z,17.41
2023-05-17T16:31:48.068Z,17.15
2023-05-17T16:35:50.366Z,17.07
2023-05-17T16:39:52.546Z,16.92
2023-05-17T16:43:54.608Z,17.42
2023-05-17T16:47:56.731Z,17.71
2023-05-17T16:51:58.802Z,18.66
2023-05-17T16:56:00.867Z,20.64
2023-05-17T17:00:04.053Z,20.62
2023-05-17T17:04:07.158Z,21.26
2023-05-17T17:08:09.218Z,21.28
2023-05-17T17:12:23.650Z,19.77
2023-05-17T17:16:26.831Z,18.68
2023-05-17T17:20:29.208Z,18.16
2023-05-17T17:24:33.159Z,17.29
2023-05-17T17:28:35.455Z,16.87
2023-05-17T17:32:37.593Z,16.45
2023-05-17T17:36:39.941Z,16.45
2023-05-17T17:40:42.032Z,16.38
2023-05-17T17:44:44.137Z,16.17
2023-05-17T17:48:46.196Z,16.11
2023-05-17T17:52:50.603Z,15.82
2023-05-17T17:56:53.018Z,15.90
2023-05-17T18:00:55.206Z,15.81
2023-05-17T18:04:57.539Z,15.76
2023-05-17T18:08:59.717Z,15.63
2023-05-17T18:13:01.993Z,15.58
2023-05-17T18:17:04.346Z,15.52
2023-05-17T18:21:08.272Z,15.35
2023-05-17T18:25:10.856Z,15.26
2023-05-17T18:29:13.298Z,15.20
2023-05-17T18:33:15.649Z,15.16
2023-05-17T18:37:18.056Z,15.08
2023-05-17T18:41:21.006Z,15.06
2023-05-17T18:45:23.254Z,14.98
2023-05-17T18:49:26.549Z,15.04
2023-05-17T18:53:29.345Z,14.97
2023-05-17T18:57:31.506Z,15.00
2023-05-17T19:01:33.963Z,14.92
2023-05-17T19:05:38.367Z,14.93
2023-05-17T19:09:42.543Z,14.84
2023-05-17T19:13:44.908Z,14.84
2023-05-17T19:17:49.342Z,14.76
2023-05-17T19:21:52.146Z,14.68
2023-05-17T19:25:55.610Z,14.67
2023-05-17T19:29:58.581Z,14.56
2023-05-17T19:34:02.436Z,14.54
2023-05-17T19:38:06.214Z,14.63
2023-05-17T19:42:12.286Z,14.52
2023-05-17T19:46:18.779Z,14.53
2023-05-17T19:50:25.222Z,14.59
2023-05-17T19:54:32.935Z,14.52
2023-05-17T19:58:39.788Z,14.57
2023-05-17T20:02:42.265Z,14.49
2023-05-17T20:06:44.584Z,14.44
2023-05-17T20:10:47.001Z,14.45
2023-05-17T20:14:49.375Z,14.54
2023-05-17T20:18:51.960Z,14.47
2023-05-17T20:22:54.292Z,14.50
2023-05-17T20:26:59.821Z,14.45
2023-05-17T20:31:02.035Z,14.48
2023-05-17T20:35:04.922Z,14.58
2023-05-17T20:39:07.791Z,14.62
2023-05-17T20:43:10.202Z,14.61
2023-05-17T20:47:12.435Z,14.61
2023-05-17T20:51:16.247Z,14.57
2023-05-17T20:55:18.692Z,14.56
2023-05-17T20:59:23.251Z,14.58
2023-05-17T21:03:28.251Z,14.59
2023-05-17T21:07:30.748Z,14.66
2023-05-17T21:11:32.974Z,14.57
2023-05-17T21:15:36.191Z,14.59
2023-05-17T21:19:38.500Z,14.53
2023-05-17T21:23:40.823Z,14.52
2023-05-17T21:27:43.042Z,14.52
2023-05-17T21:31:45.191Z,14.43
2023-05-17T21:35:47.589Z,14.53
2023-05-17T21:39:49.967Z,14.45
2023-05-17T21:43:52.215Z,14.39
2023-05-17T21:47:54.362Z,14.41
2023-05-17T21:51:56.532Z,14.35
2023-05-17T21:56:02.763Z,14.32
2023-05-17T22:00:07.873Z,14.30
2023-05-17T22:04:10.048Z,14.28
2023-05-17T22:08:12.220Z,14.22
2023-05-17T22:12:15.002Z,14.24
2023-05-17T22:16:18.767Z,14.17
2023-05-17T22:20:23.775Z,14.19
2023-05-17T22:24:26.284Z,14.24
2023-05-17T22:28:28.690Z,14.26
2023-05-17T22:32:31.160Z,14.23
2023-05-17T22:36:34.720Z,14.26
2023-05-17T22:40:36.928Z,14.34
2023-05-17T22:44:39.026Z,14.37
2023-05-17T22:48:41.146Z,14.38
2023-05-17T22:52:43.802Z,14.36
2023-05-17T22:56:46.056Z,14.42
2023-05-17T23:00:51.149Z,14.46
2023-05-17T23:04:55.770Z,14.46
2023-05-17T23:08:57.887Z,14.48
2023-05-17T23:12:59.908Z,14.39
2023-05-17T23:17:04.290Z,14.44
2023-05-17T23:21:06.555Z,14.40
2023-05-17T23:25:09.206Z,14.33
2023-05-17T23:29:12.657Z,14.28
2023-05-17T23:33:15.411Z,14.30
2023-05-17T23:37:17.528Z,14.16
2023-05-17T23:41:21.612Z,14.28
2023-05-17T23:45:23.706Z,14.20
2023-05-17T23:49:25.786Z,14.04
2023-05-17T23:53:28.178Z,13.99
2023-05-17T23:57:30.305Z,14.05
